Taunton, New York
Current Conditions -  °F | °C
As of 2:54 AM on Saturday 29 Nov 2014 (Local Time) from KSYR Reporting Station
Broken Clouds Broken Clouds  
Wind Chill: 16°   Ceiling: 11000
Heat Index: 25°   Visibility: 10mi
Dew Point: 15°   Wind: 8mph
Humidity: 66%   Direction: 210°SSW
Pressure: 30.22"   Gusts: NA
Location:  43.0396°N, 76.2224°W
Report Text: KSYR 290754Z 21007KT 10SM BKN110 M04/M09 A3022 RMK AO2 SLP237 BKN V OVC T10391094
Loading
Personal Weather Stations






























Interactive Weather Map New forecast layout! Learn more

10-Day Weather Forecast

Advertisements
Track Severe Weather on mobile